createdAt,value
2022-10-15T00:00:07.216Z,1018.73
2022-10-15T00:05:03.116Z,1018.8
2022-10-15T00:10:04.333Z,1018.87
2022-10-15T00:15:03.186Z,1018.85
2022-10-15T00:20:04.313Z,1018.67
2022-10-15T00:25:03.176Z,1018.65
2022-10-15T00:30:04.513Z,1018.7
2022-10-15T00:35:03.106Z,1018.78
2022-10-15T00:40:04.291Z,1018.85
2022-10-15T00:45:03.185Z,1018.87
2022-10-15T00:50:04.416Z,1018.97
2022-10-15T00:55:03.338Z,1018.95
2022-10-15T01:00:04.925Z,1018.83
2022-10-15T01:05:03.164Z,1018.81
2022-10-15T01:10:04.352Z,1018.93
2022-10-15T01:15:03.120Z,1018.95
2022-10-15T01:20:04.233Z,1018.89
2022-10-15T01:25:03.303Z,1018.87
2022-10-15T01:30:06.160Z,1019.11
2022-10-15T01:35:03.108Z,1019.24
2022-10-15T01:40:04.518Z,1019.23
2022-10-15T01:45:03.117Z,1019.04
2022-10-15T01:50:04.428Z,1018.78
2022-10-15T01:55:03.085Z,1018.71
2022-10-15T02:00:06.194Z,1018.82
2022-10-15T02:05:03.123Z,1018.98
2022-10-15T02:10:05.611Z,1018.82
2022-10-15T02:15:03.175Z,1018.47
2022-10-15T02:20:04.334Z,1018.47
2022-10-15T02:25:03.150Z,1018.6
2022-10-15T02:30:06.039Z,1018.43
2022-10-15T02:35:03.279Z,1018.34
2022-10-15T02:40:04.349Z,1018.53
2022-10-15T02:45:03.142Z,1018.6
2022-10-15T02:50:04.422Z,1018.51
2022-10-15T02:55:03.068Z,1018.67
2022-10-15T03:00:06.024Z,1018.82
2022-10-15T03:05:03.108Z,1018.84
2022-10-15T03:10:04.296Z,1018.69
2022-10-15T03:15:03.087Z,1018.56
2022-10-15T03:20:04.170Z,1018.57
2022-10-15T03:25:03.304Z,1018.59
2022-10-15T03:30:04.318Z,1018.53
2022-10-15T03:35:03.290Z,1018.49
2022-10-15T03:40:04.303Z,1018.47
2022-10-15T03:45:03.194Z,1018.47
2022-10-15T03:50:04.256Z,1018.27
2022-10-15T03:55:03.129Z,1018.1
2022-10-15T04:00:05.546Z,1017.9
2022-10-15T04:05:03.505Z,1017.69
2022-10-15T04:10:04.729Z,1017.64
2022-10-15T04:15:03.152Z,1017.91
2022-10-15T04:20:04.400Z,1017.96
2022-10-15T04:25:03.130Z,1017.92
2022-10-15T04:30:05.771Z,1018.02
2022-10-15T04:35:03.106Z,1018.02
2022-10-15T04:40:04.263Z,1018.18
2022-10-15T04:45:03.087Z,1018.26
2022-10-15T04:50:04.289Z,1018.33
2022-10-15T04:55:03.120Z,1018.27
2022-10-15T05:00:09.630Z,1018.31
2022-10-15T05:05:03.103Z,1018.27
2022-10-15T05:10:04.226Z,1018.35
2022-10-15T05:15:03.328Z,1018.51
2022-10-15T05:20:04.272Z,1018.57
2022-10-15T05:25:03.175Z,1018.59
2022-10-15T05:30:04.424Z,1018.73
2022-10-15T05:35:03.197Z,1018.71
2022-10-15T05:40:04.435Z,1018.58
2022-10-15T05:45:03.053Z,1018.46
2022-10-15T05:50:06.948Z,1018.25
2022-10-15T05:55:03.106Z,1018.21
2022-10-15T06:00:06.039Z,1018.31
2022-10-15T06:05:03.205Z,1018.25
2022-10-15T06:10:04.417Z,1018.13
2022-10-15T06:15:03.022Z,1017.93
2022-10-15T06:20:04.169Z,1017.97
2022-10-15T06:25:03.017Z,1018.08
2022-10-15T06:30:05.731Z,1017.78
2022-10-15T06:35:03.073Z,1017.95
2022-10-15T06:40:04.233Z,1017.91
2022-10-15T06:45:03.201Z,1017.68
2022-10-15T06:50:04.310Z,1017.73
2022-10-15T06:55:03.017Z,1017.76
2022-10-15T07:00:06.041Z,1017.8
2022-10-15T07:05:03.170Z,1017.76
2022-10-15T07:10:04.216Z,1017.75
2022-10-15T07:15:03.160Z,1017.73
2022-10-15T07:20:04.262Z,1018.02
2022-10-15T07:25:03.122Z,1018.05
2022-10-15T07:30:04.287Z,1017.95
2022-10-15T07:35:03.132Z,1017.85
2022-10-15T07:40:04.235Z,1018.08
2022-10-15T07:45:03.202Z,1018.04
2022-10-15T07:50:04.151Z,1018.01
2022-10-15T07:55:03.034Z,1018.07
2022-10-15T08:00:06.033Z,1018.08
2022-10-15T08:05:03.137Z,1018.12
2022-10-15T08:10:04.244Z,1018.16
2022-10-15T08:15:03.121Z,1018.34
2022-10-15T08:20:06.049Z,1018.47
2022-10-15T08:25:03.122Z,1018.52
2022-10-15T08:30:04.824Z,1018.53
2022-10-15T08:35:03.105Z,1018.48
2022-10-15T08:40:04.238Z,1018.55
2022-10-15T08:45:03.105Z,1018.72
2022-10-15T08:50:04.220Z,1018.77
2022-10-15T08:55:03.083Z,1018.8
2022-10-15T09:00:05.358Z,1018.78
2022-10-15T09:05:03.176Z,1018.86
2022-10-15T09:10:04.185Z,1018.83
2022-10-15T09:15:03.144Z,1018.84
2022-10-15T09:20:04.278Z,1018.89
2022-10-15T09:25:03.209Z,1018.91
2022-10-15T09:30:04.364Z,1018.91
2022-10-15T09:35:03.041Z,1019.05
2022-10-15T09:40:04.201Z,1019.15
2022-10-15T09:45:03.082Z,1019.16
2022-10-15T09:50:04.280Z,1019.21
2022-10-15T09:55:03.097Z,1019.14
2022-10-15T10:00:06.020Z,1019.15
2022-10-15T10:05:05.367Z,1019.23
2022-10-15T10:10:04.238Z,1019.31
2022-10-15T10:15:03.052Z,1019.42
2022-10-15T10:20:05.382Z,1019.55
2022-10-15T10:25:03.067Z,1019.68
2022-10-15T10:30:05.474Z,1019.77
2022-10-15T10:35:03.056Z,1019.76
2022-10-15T10:40:04.226Z,1019.81
2022-10-15T10:45:03.148Z,1019.88
2022-10-15T10:50:04.230Z,1019.97
2022-10-15T10:55:03.094Z,1020.05
2022-10-15T11:00:06.064Z,1020.18
2022-10-15T11:05:04.204Z,1020.28
2022-10-15T11:10:04.275Z,1020.27
2022-10-15T11:15:03.166Z,1020.25
2022-10-15T11:20:25.592Z,1020.36
2022-10-15T11:25:06.820Z,1020.43
2022-10-15T11:30:04.976Z,1020.51
2022-10-15T11:35:04.150Z,1020.51
2022-10-15T11:40:04.296Z,1020.53
2022-10-15T11:45:03.138Z,1020.56
2022-10-15T11:50:04.263Z,1020.53
2022-10-15T11:55:03.113Z,1020.6
2022-10-15T12:00:04.221Z,1020.6
2022-10-15T12:05:03.241Z,1020.7
2022-10-15T12:10:04.448Z,1020.83
2022-10-15T12:15:03.163Z,1020.95
2022-10-15T12:20:04.298Z,1020.94
2022-10-15T12:25:03.151Z,1020.93
2022-10-15T12:30:06.034Z,1021.03
2022-10-15T12:35:03.143Z,1021.0
2022-10-15T12:40:04.283Z,1020.96
2022-10-15T12:45:03.174Z,1021.02
2022-10-15T12:50:05.252Z,1020.98
2022-10-15T12:55:03.093Z,1020.9
2022-10-15T13:00:06.154Z,1020.86
2022-10-15T13:05:03.152Z,1020.91
2022-10-15T13:10:04.166Z,1020.95
2022-10-15T13:15:03.097Z,1020.92
2022-10-15T13:20:04.196Z,1020.87
2022-10-15T13:25:03.076Z,1020.92
2022-10-15T13:30:06.136Z,1020.89
2022-10-15T13:35:03.109Z,1020.93
2022-10-15T13:40:06.517Z,1020.9
2022-10-15T13:45:03.122Z,1020.81
2022-10-15T13:50:04.263Z,1020.95
2022-10-15T13:55:03.104Z,1020.89
2022-10-15T14:00:04.609Z,1020.8
2022-10-15T14:05:04.141Z,1020.73
2022-10-15T14:10:04.350Z,1020.63
2022-10-15T14:15:03.078Z,1020.63
2022-10-15T14:25:03.254Z,1020.57
2022-10-15T14:30:06.516Z,1020.77
2022-10-15T14:35:04.105Z,1020.76
2022-10-15T14:40:04.399Z,1020.74
2022-10-15T14:45:03.165Z,1020.76
2022-10-15T14:50:04.337Z,1020.75
2022-10-15T14:55:03.252Z,1020.7
2022-10-15T15:00:06.060Z,1020.67
2022-10-15T15:05:03.171Z,1020.54
2022-10-15T15:10:04.325Z,1020.53
2022-10-15T15:15:03.303Z,1020.55
2022-10-15T15:25:03.119Z,1020.46
2022-10-15T15:30:06.116Z,1020.38
2022-10-15T15:35:03.091Z,1020.37
2022-10-15T15:40:04.458Z,1020.22
2022-10-15T15:45:03.079Z,1020.19
2022-10-15T15:50:04.313Z,1020.26
2022-10-15T15:55:03.212Z,1020.18
2022-10-15T16:00:04.444Z,1020.1
2022-10-15T16:05:03.177Z,1019.98
2022-10-15T16:10:04.349Z,1019.95
2022-10-15T16:15:03.133Z,1019.97
2022-10-15T16:20:04.245Z,1019.89
2022-10-15T16:25:03.171Z,1019.84
2022-10-15T16:30:06.120Z,1019.7
2022-10-15T16:35:03.118Z,1019.58
2022-10-15T16:40:04.252Z,1019.51
2022-10-15T16:45:03.125Z,1019.39
2022-10-15T16:50:04.384Z,1019.39
2022-10-15T16:55:06.897Z,1019.32
2022-10-15T17:00:06.120Z,1019.26
2022-10-15T17:05:03.219Z,1019.14
2022-10-15T17:10:04.375Z,1019.16
2022-10-15T17:15:03.142Z,1019.12
2022-10-15T17:20:04.495Z,1019.04
2022-10-15T17:25:03.138Z,1019.03
2022-10-15T17:30:04.455Z,1019.07
2022-10-15T17:35:04.215Z,1019.02
2022-10-15T17:40:04.549Z,1019.0
2022-10-15T17:45:03.151Z,1018.97
2022-10-15T17:50:04.270Z,1019.04
2022-10-15T17:55:03.145Z,1019.02
2022-10-15T18:00:04.528Z,1018.98
2022-10-15T18:05:03.172Z,1018.98
2022-10-15T18:10:04.330Z,1018.93
2022-10-15T18:15:03.141Z,1018.87
2022-10-15T18:20:04.380Z,1018.74
2022-10-15T18:25:03.211Z,1018.73
2022-10-15T18:30:06.057Z,1018.8
2022-10-15T18:35:04.185Z,1018.84
2022-10-15T18:40:04.504Z,1018.71
2022-10-15T18:45:03.201Z,1018.63
2022-10-15T18:50:04.351Z,1018.63
2022-10-15T18:55:03.167Z,1018.64
2022-10-15T19:00:04.562Z,1018.71
2022-10-15T19:05:03.136Z,1018.62
2022-10-15T19:10:04.546Z,1018.44
2022-10-15T19:15:03.249Z,1018.37
2022-10-15T19:20:04.328Z,1018.37
2022-10-15T19:25:03.110Z,1018.32
2022-10-15T19:30:04.553Z,1018.2
2022-10-15T19:35:03.180Z,1018.28
2022-10-15T19:40:04.507Z,1018.36
2022-10-15T19:45:03.201Z,1018.35
2022-10-15T19:50:06.228Z,1018.38
2022-10-15T19:55:03.170Z,1018.39
2022-10-15T20:00:05.299Z,1018.37
2022-10-15T20:05:03.221Z,1018.4
2022-10-15T20:10:04.342Z,1018.37
2022-10-15T20:15:03.217Z,1018.37
2022-10-15T20:20:04.383Z,1018.39
2022-10-15T20:25:03.205Z,1018.5
2022-10-15T20:30:04.998Z,1018.51
2022-10-15T20:35:03.292Z,1018.51
2022-10-15T20:40:04.319Z,1018.45
2022-10-15T20:45:03.277Z,1018.43
2022-10-15T20:50:04.581Z,1018.46
2022-10-15T20:55:03.216Z,1018.53
2022-10-15T21:00:04.579Z,1018.53
2022-10-15T21:05:03.423Z,1018.55
2022-10-15T21:10:04.464Z,1018.55
2022-10-15T21:15:03.158Z,1018.48
2022-10-15T21:20:04.314Z,1018.6
2022-10-15T21:25:03.107Z,1018.59
2022-10-15T21:30:06.164Z,1018.62
2022-10-15T21:35:03.240Z,1018.59
2022-10-15T21:40:04.478Z,1018.64
2022-10-15T21:45:03.186Z,1018.68
2022-10-15T21:50:04.288Z,1018.66
2022-10-15T21:55:03.158Z,1018.64
2022-10-15T22:00:04.427Z,1018.58
2022-10-15T22:05:03.078Z,1018.41
2022-10-15T22:10:04.314Z,1018.23
2022-10-15T22:15:03.335Z,1018.05
2022-10-15T22:20:04.501Z,1018.03
2022-10-15T22:25:03.217Z,1017.88
2022-10-15T22:30:04.582Z,1017.86
2022-10-15T22:35:03.248Z,1017.89
2022-10-15T22:40:06.115Z,1017.88
2022-10-15T22:45:03.154Z,1018.07
2022-10-15T22:50:05.934Z,1018.16
2022-10-15T22:55:03.242Z,1018.24
2022-10-15T23:00:04.549Z,1018.12
2022-10-15T23:05:03.098Z,1018.12
2022-10-15T23:10:04.503Z,1018.03
2022-10-15T23:20:04.380Z,1018.05
2022-10-15T23:25:03.156Z,1017.88
2022-10-15T23:30:20.907Z,1017.88
2022-10-15T23:35:03.299Z,1018.01
2022-10-15T23:40:04.505Z,1017.9
2022-10-15T23:45:03.061Z,1017.97
2022-10-15T23:50:05.918Z,1018.1
2022-10-15T23:55:03.164Z,1018.02
